Time;durP1;ratioP1;P1;durP2;ratioP2;P2;SDS_P1;SDS_P2;PMS_P1;PMS_P2;Temp;Humidity;BMP_temperature;BMP_pressure;BME280_temperature;BME280_humidity;BME280_pressure;Samples;Min_cycle;Max_cycle;Signal;HPM_P1;HPM_P2
2024/02/27 00:01:59;;;;;;;1.23;1.00;;;;;;;;;;5010546;28;20326;-77
2024/02/27 00:04:26;;;;;;;3.08;1.05;;;;;;;;;;5013245;28;20050;-79
2024/02/27 00:06:54;;;;;;;3.42;0.82;;;;;;;;;;5010069;28;20586;-78
2024/02/27 00:09:21;;;;;;;1.23;0.85;;;;;;;;;;5015164;28;20561;-78
2024/02/27 00:11:48;;;;;;;1.40;0.80;;;;;;;;;;5014287;28;20092;-79
2024/02/27 00:14:15;;;;;;;2.17;0.82;;;;;;;;;;5012756;28;20077;-79
2024/02/27 00:16:41;;;;;;;1.50;0.70;;;;;;;;;;5016644;28;20053;-78
2024/02/27 00:19:08;;;;;;;0.80;0.60;;;;;;;;;;5009517;28;20083;-78
2024/02/27 00:21:35;;;;;;;0.90;0.70;;;;;;;;;;5010156;28;20467;-79
2024/02/27 00:24:02;;;;;;;3.22;0.65;;;;;;;;;;4995042;28;20419;-78
2024/02/27 00:26:29;;;;;;;1.63;1.00;;;;;;;;;;5012093;28;20072;-79
2024/02/27 00:28:55;;;;;;;0.75;0.70;;;;;;;;;;4994647;28;20086;-77
2024/02/27 00:31:22;;;;;;;1.58;0.80;;;;;;;;;;5031983;28;20186;-78
2024/02/27 00:33:49;;;;;;;0.90;0.80;;;;;;;;;;4999752;28;20504;-78
2024/02/27 00:36:16;;;;;;;0.65;0.65;;;;;;;;;;5014367;28;20050;-77
2024/02/27 00:38:43;;;;;;;1.10;0.65;;;;;;;;;;5010780;28;20054;-78
2024/02/27 00:41:10;;;;;;;1.75;0.90;;;;;;;;;;5006844;28;20080;-76
2024/02/27 00:43:36;;;;;;;1.77;0.70;;;;;;;;;;5012645;28;20045;-78
2024/02/27 00:46:03;;;;;;;1.08;0.65;;;;;;;;;;5014152;28;20141;-77
2024/02/27 00:48:30;;;;;;;0.80;0.50;;;;;;;;;;5013659;28;20061;-78
2024/02/27 00:50:56;;;;;;;1.85;0.75;;;;;;;;;;5013352;28;20061;-77
2024/02/27 00:53:23;;;;;;;0.68;0.52;;;;;;;;;;5009012;28;20072;-77
2024/02/27 00:55:50;;;;;;;1.50;0.60;;;;;;;;;;5013202;28;20115;-77
2024/02/27 00:58:16;;;;;;;1.25;0.65;;;;;;;;;;5047145;28;20046;-78
2024/02/27 01:00:43;;;;;;;2.25;0.50;;;;;;;;;;5023598;28;20053;-78
2024/02/27 01:03:10;;;;;;;1.67;0.32;;;;;;;;;;5007742;28;20054;-77
2024/02/27 01:05:36;;;;;;;1.33;0.45;;;;;;;;;;5016074;28;20050;-78
2024/02/27 01:08:03;;;;;;;0.98;0.50;;;;;;;;;;5015869;28;20116;-78
2024/02/27 01:10:30;;;;;;;0.60;0.60;;;;;;;;;;5031239;28;20096;-78
2024/02/27 01:12:56;;;;;;;2.10;0.70;;;;;;;;;;5016862;28;20424;-77
2024/02/27 01:15:23;;;;;;;0.80;0.50;;;;;;;;;;5017588;28;20436;-78
2024/02/27 01:17:50;;;;;;;0.95;0.70;;;;;;;;;;5001669;28;20580;-78
2024/02/27 01:20:16;;;;;;;1.80;1.00;;;;;;;;;;5019400;28;20041;-78
2024/02/27 01:22:44;;;;;;;1.40;0.93;;;;;;;;;;5019436;28;20084;-79
2024/02/27 01:25:12;;;;;;;2.17;0.95;;;;;;;;;;5009041;28;20509;-77
2024/02/27 01:27:39;;;;;;;1.85;1.00;;;;;;;;;;5034636;28;20057;-77
2024/02/27 01:30:06;;;;;;;1.85;0.90;;;;;;;;;;5012980;28;20065;-77
2024/02/27 01:32:33;;;;;;;1.05;0.90;;;;;;;;;;5015364;28;20045;-78
2024/02/27 01:34:59;;;;;;;1.50;1.20;;;;;;;;;;5016641;28;20058;-79
2024/02/27 01:37:26;;;;;;;1.63;0.85;;;;;;;;;;5036314;28;20042;-78
2024/02/27 01:39:53;;;;;;;1.42;0.90;;;;;;;;;;5003104;28;20078;-78
2024/02/27 01:42:19;;;;;;;1.00;0.80;;;;;;;;;;5018643;28;20061;-78
2024/02/27 01:44:50;;;;;;;2.55;1.00;;;;;;;;;;5016557;28;20105;-79
2024/02/27 01:47:18;;;;;;;1.20;0.90;;;;;;;;;;5001002;28;20049;-79
2024/02/27 01:49:47;;;;;;;2.97;1.80;;;;;;;;;;5019236;28;20108;-78
2024/02/27 01:52:13;;;;;;;3.22;1.83;;;;;;;;;;5001139;28;20050;-77
2024/02/27 01:54:43;;;;;;;3.75;2.28;;;;;;;;;;5015006;28;20085;-77
2024/02/27 01:57:10;;;;;;;3.17;2.28;;;;;;;;;;5009885;28;20077;-77
2024/02/27 01:59:36;;;;;;;5.40;2.75;;;;;;;;;;5028752;28;20054;-76
2024/02/27 02:02:03;;;;;;;4.90;3.10;;;;;;;;;;4993869;28;20078;-77
2024/02/27 02:04:30;;;;;;;5.38;3.25;;;;;;;;;;4999640;28;20057;-77
2024/02/27 02:06:56;;;;;;;5.22;3.08;;;;;;;;;;5010175;28;20490;-76
2024/02/27 02:09:23;;;;;;;5.68;3.03;;;;;;;;;;5011312;28;20046;-77
2024/02/27 02:11:50;;;;;;;4.93;3.22;;;;;;;;;;4993586;28;20061;-77
2024/02/27 02:14:17;;;;;;;6.85;3.53;;;;;;;;;;5016451;28;20289;-77
2024/02/27 02:16:44;;;;;;;9.43;4.80;;;;;;;;;;4993620;28;20516;-78
2024/02/27 02:19:11;;;;;;;8.15;4.45;;;;;;;;;;5008298;28;20057;-75
2024/02/27 02:21:37;;;;;;;6.85;4.30;;;;;;;;;;4995785;28;20052;-77
2024/02/27 02:24:04;;;;;;;6.80;5.03;;;;;;;;;;5010940;28;20101;-77
2024/02/27 02:26:31;;;;;;;6.78;4.70;;;;;;;;;;5026914;28;20049;-77
2024/02/27 02:28:58;;;;;;;6.95;4.88;;;;;;;;;;5014504;28;20058;-78
2024/02/27 02:31:24;;;;;;;7.75;5.18;;;;;;;;;;5017379;28;20111;-79
2024/02/27 02:33:51;;;;;;;7.43;5.00;;;;;;;;;;4998864;28;20050;-78
2024/02/27 02:36:18;;;;;;;8.02;5.38;;;;;;;;;;5006092;28;20050;-78
2024/02/27 02:38:44;;;;;;;10.10;5.00;;;;;;;;;;5013332;28;20096;-77
2024/02/27 02:41:11;;;;;;;8.25;4.68;;;;;;;;;;5013828;28;20177;-77
2024/02/27 02:43:38;;;;;;;6.88;4.68;;;;;;;;;;5012158;28;20563;-78
2024/02/27 02:46:06;;;;;;;6.47;4.50;;;;;;;;;;4991316;28;20054;-77
2024/02/27 02:48:32;;;;;;;7.35;4.68;;;;;;;;;;5010338;28;20129;-78
2024/02/27 02:50:59;;;;;;;8.10;5.25;;;;;;;;;;5011706;28;20058;-76
2024/02/27 02:53:26;;;;;;;7.63;4.90;;;;;;;;;;5011525;28;20061;-77
2024/02/27 02:55:52;;;;;;;8.88;5.15;;;;;;;;;;5011216;28;20050;-77
2024/02/27 02:58:19;;;;;;;9.05;5.53;;;;;;;;;;5010899;28;20081;-78
2024/02/27 03:00:46;;;;;;;7.70;4.65;;;;;;;;;;5010941;28;20459;-77
2024/02/27 03:03:12;;;;;;;8.35;4.78;;;;;;;;;;5011162;28;20050;-77
2024/02/27 03:05:39;;;;;;;6.60;4.63;;;;;;;;;;5010716;28;20157;-77
2024/02/27 03:08:06;;;;;;;8.18;5.05;;;;;;;;;;5001837;28;20089;-76
2024/02/27 03:10:32;;;;;;;8.05;4.78;;;;;;;;;;5009767;28;20081;-77
2024/02/27 03:12:59;;;;;;;7.40;4.43;;;;;;;;;;5010564;28;20132;-78
2024/02/27 03:15:25;;;;;;;8.18;4.85;;;;;;;;;;5012043;28;20086;-78
2024/02/27 03:17:52;;;;;;;7.55;4.80;;;;;;;;;;4996383;28;20050;-78
2024/02/27 03:20:19;;;;;;;9.93;5.38;;;;;;;;;;5012910;28;20123;-78
2024/02/27 03:22:46;;;;;;;8.75;4.97;;;;;;;;;;5012403;28;20078;-77
2024/02/27 03:25:12;;;;;;;7.65;5.07;;;;;;;;;;5010712;28;20412;-77
2024/02/27 03:27:40;;;;;;;7.55;4.70;;;;;;;;;;5010922;28;20115;-77
2024/02/27 03:30:07;;;;;;;8.07;5.15;;;;;;;;;;5010530;28;20050;-78
2024/02/27 03:32:34;;;;;;;8.43;5.53;;;;;;;;;;5012891;28;20054;-78
2024/02/27 03:35:00;;;;;;;7.53;5.03;;;;;;;;;;5012575;28;20056;-78
2024/02/27 03:37:27;;;;;;;8.90;5.68;;;;;;;;;;5013242;28;20046;-78
2024/02/27 03:39:54;;;;;;;10.45;4.70;;;;;;;;;;5013185;28;20264;-78
2024/02/27 03:42:20;;;;;;;9.63;5.53;;;;;;;;;;5013722;28;20096;-78
2024/02/27 03:44:47;;;;;;;8.65;5.40;;;;;;;;;;5012295;28;20157;-78
2024/02/27 03:47:14;;;;;;;8.77;5.35;;;;;;;;;;5013060;28;20085;-78
2024/02/27 03:49:41;;;;;;;8.70;5.13;;;;;;;;;;4988127;28;20053;-78
2024/02/27 03:52:08;;;;;;;8.38;4.65;;;;;;;;;;4995664;28;20061;-78
2024/02/27 03:54:35;;;;;;;7.85;4.93;;;;;;;;;;5011317;28;20093;-78
2024/02/27 03:57:02;;;;;;;9.40;5.30;;;;;;;;;;5012099;28;20050;-78
2024/02/27 03:59:29;;;;;;;8.80;5.38;;;;;;;;;;4994328;28;20046;-78
2024/02/27 04:01:56;;;;;;;7.40;4.80;;;;;;;;;;5011146;28;20050;-78
2024/02/27 04:04:22;;;;;;;8.25;5.28;;;;;;;;;;5010305;28;20050;-77
2024/02/27 04:06:49;;;;;;;10.57;5.57;;;;;;;;;;5009743;28;20062;-77
2024/02/27 04:09:16;;;;;;;9.05;5.55;;;;;;;;;;5009323;28;20345;-77
2024/02/27 04:11:42;;;;;;;10.27;5.60;;;;;;;;;;5009535;28;20471;-80
2024/02/27 04:14:09;;;;;;;7.80;4.93;;;;;;;;;;4996130;28;20101;-77
2024/02/27 04:16:36;;;;;;;9.60;5.32;;;;;;;;;;5010858;28;20133;-78
2024/02/27 04:19:03;;;;;;;10.00;5.55;;;;;;;;;;5030162;28;20085;-77
2024/02/27 04:21:29;;;;;;;7.68;5.07;;;;;;;;;;4993247;28;20054;-77
2024/02/27 04:23:56;;;;;;;8.13;5.65;;;;;;;;;;4999103;28;20053;-77
2024/02/27 04:26:23;;;;;;;8.13;5.53;;;;;;;;;;5012930;28;20112;-76
2024/02/27 04:28:49;;;;;;;8.68;5.32;;;;;;;;;;5012532;28;20061;-77
2024/02/27 04:31:16;;;;;;;10.90;5.57;;;;;;;;;;5014189;28;20050;-78
2024/02/27 04:33:43;;;;;;;10.98;5.72;;;;;;;;;;5016667;28;20054;-78
2024/02/27 04:36:10;;;;;;;10.63;6.25;;;;;;;;;;5000317;28;20057;-78
2024/02/27 04:38:37;;;;;;;7.80;5.63;;;;;;;;;;4999297;28;20054;-78
2024/02/27 04:41:04;;;;;;;8.60;5.50;;;;;;;;;;5013578;28;20108;-77
2024/02/27 04:43:31;;;;;;;10.38;6.07;;;;;;;;;;5013070;28;20101;-78
2024/02/27 04:45:58;;;;;;;9.07;5.30;;;;;;;;;;5018214;28;20073;-78
2024/02/27 04:48:25;;;;;;;8.18;5.22;;;;;;;;;;5018598;28;20045;-79
2024/02/27 04:50:52;;;;;;;10.68;5.80;;;;;;;;;;4999827;28;20050;-79
2024/02/27 04:53:18;;;;;;;8.18;5.38;;;;;;;;;;4997915;28;20420;-79
2024/02/27 04:55:45;;;;;;;7.65;5.00;;;;;;;;;;5009491;28;20483;-79
2024/02/27 04:58:11;;;;;;;9.30;5.70;;;;;;;;;;5009009;28;20051;-77
2024/02/27 05:00:38;;;;;;;10.07;5.78;;;;;;;;;;5015693;28;20085;-78
2024/02/27 05:03:05;;;;;;;9.00;6.00;;;;;;;;;;5016109;28;20164;-78
2024/02/27 05:05:31;;;;;;;17.08;6.80;;;;;;;;;;5014454;28;20069;-77
2024/02/27 05:07:58;;;;;;;11.27;6.07;;;;;;;;;;5029809;28;20136;-77
2024/02/27 05:10:25;;;;;;;8.68;5.65;;;;;;;;;;5015699;28;20054;-77
2024/02/27 05:12:52;;;;;;;11.52;5.90;;;;;;;;;;5015885;28;20060;-77
2024/02/27 05:15:18;;;;;;;11.75;6.47;;;;;;;;;;5015495;28;20058;-76
2024/02/27 05:17:45;;;;;;;11.18;5.75;;;;;;;;;;5015624;28;20065;-77
2024/02/27 05:20:12;;;;;;;10.73;5.93;;;;;;;;;;5015664;28;20041;-78
2024/02/27 05:22:38;;;;;;;8.60;5.57;;;;;;;;;;5014726;28;20086;-78
2024/02/27 05:25:05;;;;;;;9.75;6.43;;;;;;;;;;5013769;28;20096;-77
2024/02/27 05:27:34;;;;;;;11.35;6.35;;;;;;;;;;5013976;28;20141;-77
2024/02/27 05:30:02;;;;;;;10.25;6.82;;;;;;;;;;5013559;28;20057;-78
2024/02/27 05:32:29;;;;;;;11.23;6.80;;;;;;;;;;5012162;28;20501;-78
2024/02/27 05:34:56;;;;;;;11.07;6.85;;;;;;;;;;5014342;28;20113;-78
2024/02/27 05:37:23;;;;;;;12.40;7.40;;;;;;;;;;4996517;28;20101;-78
2024/02/27 05:39:49;;;;;;;15.45;8.55;;;;;;;;;;5016019;28;20408;-78
2024/02/27 05:42:16;;;;;;;9.95;6.88;;;;;;;;;;5015599;28;20437;-78
2024/02/27 05:44:42;;;;;;;12.80;7.75;;;;;;;;;;5017131;28;20061;-79
2024/02/27 05:47:09;;;;;;;13.75;7.88;;;;;;;;;;5015429;28;20085;-78
2024/02/27 05:49:36;;;;;;;12.68;7.30;;;;;;;;;;5015516;28;20512;-77
2024/02/27 05:52:03;;;;;;;12.77;7.55;;;;;;;;;;5026377;28;20118;-77
2024/02/27 05:54:29;;;;;;;13.98;8.18;;;;;;;;;;5028380;28;20412;-78
2024/02/27 05:56:56;;;;;;;12.07;7.72;;;;;;;;;;5011391;28;20504;-77
2024/02/27 05:59:22;;;;;;;13.90;8.18;;;;;;;;;;5007951;28;20053;-77
2024/02/27 06:01:49;;;;;;;13.68;7.88;;;;;;;;;;5011686;28;20112;-77
2024/02/27 06:04:16;;;;;;;13.15;8.02;;;;;;;;;;4995489;28;20479;-77
2024/02/27 06:06:42;;;;;;;10.50;7.15;;;;;;;;;;5010982;28;20100;-77
2024/02/27 06:09:10;;;;;;;14.15;8.15;;;;;;;;;;5011352;28;20058;-77
2024/02/27 06:11:36;;;;;;;14.05;8.13;;;;;;;;;;4996284;28;20073;-79
2024/02/27 06:14:03;;;;;;;13.98;8.85;;;;;;;;;;4993930;28;20054;-77
2024/02/27 06:16:30;;;;;;;13.15;7.80;;;;;;;;;;5009574;28;20111;-77
2024/02/27 06:18:56;;;;;;;15.27;8.50;;;;;;;;;;5012792;28;20473;-79
2024/02/27 06:24:08;;;;;;;15.18;8.30;;;;;;;;;;5018541;28;20393;-79
2024/02/27 06:26:35;;;;;;;16.05;8.30;;;;;;;;;;5018380;28;20057;-79
2024/02/27 06:29:02;;;;;;;15.50;8.98;;;;;;;;;;5014505;28;20062;-78
2024/02/27 06:31:29;;;;;;;15.48;8.57;;;;;;;;;;5011147;28;20077;-78
2024/02/27 06:33:56;;;;;;;17.05;9.20;;;;;;;;;;5011336;28;20081;-77
2024/02/27 06:36:23;;;;;;;15.32;9.45;;;;;;;;;;4994451;28;20070;-81
2024/02/27 06:38:50;;;;;;;20.85;10.60;;;;;;;;;;4996752;28;20248;-79
2024/02/27 06:41:17;;;;;;;16.58;9.65;;;;;;;;;;5014618;28;20084;-80
2024/02/27 06:43:43;;;;;;;19.65;10.38;;;;;;;;;;5014727;28;20045;-80
2024/02/27 06:46:10;;;;;;;19.65;9.93;;;;;;;;;;5015019;28;20069;-81
2024/02/27 06:48:36;;;;;;;18.38;9.88;;;;;;;;;;5000808;28;20057;-79
2024/02/27 06:51:06;;;;;;;17.83;10.18;;;;;;;;;;5017260;28;20054;-79
2024/02/27 06:53:33;;;;;;;15.20;9.48;;;;;;;;;;5016530;28;20089;-80
2024/02/27 06:56:00;;;;;;;19.88;9.90;;;;;;;;;;5000653;28;20085;-79
2024/02/27 06:58:26;;;;;;;20.08;10.20;;;;;;;;;;5020220;28;20074;-78
2024/02/27 07:00:53;;;;;;;15.05;9.68;;;;;;;;;;5013566;28;20054;-77
2024/02/27 07:03:20;;;;;;;15.90;10.57;;;;;;;;;;5016163;28;20493;-80
2024/02/27 07:05:47;;;;;;;16.67;10.90;;;;;;;;;;4997530;28;20500;-78
2024/02/27 07:08:17;;;;;;;19.15;9.93;;;;;;;;;;5007152;28;20788;-75
2024/02/27 07:10:43;;;;;;;18.15;10.32;;;;;;;;;;5008949;28;20488;-77
2024/02/27 07:13:10;;;;;;;15.07;9.52;;;;;;;;;;5009103;28;20058;-75
2024/02/27 07:15:37;;;;;;;15.55;10.23;;;;;;;;;;5008507;28;20096;-76
2024/02/27 07:18:05;;;;;;;24.17;11.10;;;;;;;;;;5008641;28;20587;-75
2024/02/27 07:20:31;;;;;;;16.67;10.05;;;;;;;;;;5008209;28;20045;-75
2024/02/27 07:22:59;;;;;;;16.27;9.63;;;;;;;;;;5009037;28;20085;-77
2024/02/27 07:25:26;;;;;;;16.08;9.75;;;;;;;;;;5008267;28;20141;-75
2024/02/27 07:27:52;;;;;;;16.77;10.23;;;;;;;;;;5008306;28;20104;-77
2024/02/27 07:30:19;;;;;;;18.25;10.70;;;;;;;;;;5008394;28;20064;-76
2024/02/27 07:32:46;;;;;;;19.67;10.40;;;;;;;;;;5008341;28;20514;-76
2024/02/27 07:35:12;;;;;;;16.27;10.00;;;;;;;;;;4991889;28;20065;-76
2024/02/27 07:37:39;;;;;;;16.02;10.32;;;;;;;;;;5007741;28;20050;-77
2024/02/27 07:40:06;;;;;;;18.08;10.30;;;;;;;;;;5009233;28;20094;-77
2024/02/27 07:42:33;;;;;;;16.67;9.55;;;;;;;;;;4991954;28;20290;-77
2024/02/27 07:45:00;;;;;;;16.52;9.45;;;;;;;;;;5008292;28;20100;-76
2024/02/27 07:47:27;;;;;;;18.02;10.45;;;;;;;;;;5007863;28;20133;-76
2024/02/27 07:49:53;;;;;;;15.20;9.90;;;;;;;;;;5007823;28;20058;-77
2024/02/27 07:52:21;;;;;;;17.17;10.60;;;;;;;;;;5008287;28;20054;-76
2024/02/27 07:54:48;;;;;;;16.25;9.50;;;;;;;;;;5010636;28;20061;-76
2024/02/27 07:57:14;;;;;;;18.55;9.82;;;;;;;;;;5012040;28;20049;-76
2024/02/27 07:59:41;;;;;;;16.23;10.98;;;;;;;;;;5028397;28;20173;-76
2024/02/27 08:02:07;;;;;;;17.90;10.60;;;;;;;;;;5011996;28;20054;-77
2024/02/27 08:04:34;;;;;;;14.68;9.50;;;;;;;;;;5013793;28;20159;-83
2024/02/27 08:07:01;;;;;;;17.88;10.60;;;;;;;;;;4998354;28;20049;-77
2024/02/27 08:09:28;;;;;;;14.75;10.00;;;;;;;;;;5012484;28;20050;-78
2024/02/27 08:11:55;;;;;;;20.50;11.40;;;;;;;;;;5016721;28;20061;-79
2024/02/27 08:14:21;;;;;;;16.00;10.50;;;;;;;;;;4998964;28;20401;-79
2024/02/27 08:16:48;;;;;;;16.10;10.65;;;;;;;;;;5002022;28;20058;-80
2024/02/27 08:19:14;;;;;;;16.80;10.48;;;;;;;;;;5013189;28;20089;-82
2024/02/27 08:21:41;;;;;;;17.23;10.45;;;;;;;;;;5013420;28;20052;-81
2024/02/27 08:24:12;;;;;;;17.55;10.45;;;;;;;;;;5018496;28;20104;-84
2024/02/27 08:26:39;;;;;;;15.68;10.35;;;;;;;;;;5020189;28;20562;-82
2024/02/27 08:29:06;;;;;;;15.02;9.73;;;;;;;;;;5000082;28;20066;-80
2024/02/27 08:31:32;;;;;;;17.05;10.52;;;;;;;;;;4997695;28;20118;-78
2024/02/27 08:34:04;;;;;;;15.98;10.13;;;;;;;;;;5013778;28;20060;-77
2024/02/27 08:36:31;;;;;;;15.15;10.50;;;;;;;;;;5013115;28;20089;-77
2024/02/27 08:38:59;;;;;;;16.73;10.02;;;;;;;;;;5012755;28;20054;-77
2024/02/27 08:41:25;;;;;;;18.70;11.00;;;;;;;;;;5012813;28;20053;-77
2024/02/27 08:43:52;;;;;;;16.95;10.40;;;;;;;;;;4995548;28;20141;-81
2024/02/27 08:46:19;;;;;;;14.60;9.95;;;;;;;;;;4997193;28;20078;-81
2024/02/27 08:48:46;;;;;;;19.38;10.93;;;;;;;;;;5035475;28;20504;-81
2024/02/27 08:51:13;;;;;;;17.48;10.32;;;;;;;;;;5001082;28;20672;-78
2024/02/27 08:53:39;;;;;;;17.35;10.02;;;;;;;;;;5000795;28;20058;-77
2024/02/27 08:56:06;;;;;;;16.10;10.27;;;;;;;;;;4993827;28;20508;-77
2024/02/27 08:58:36;;;;;;;17.50;11.63;;;;;;;;;;5003451;28;20050;-77
2024/02/27 09:01:03;;;;;;;15.68;10.68;;;;;;;;;;5011340;28;20404;-78
2024/02/27 09:03:31;;;;;;;17.85;10.38;;;;;;;;;;5023907;28;20459;-77
2024/02/27 09:05:57;;;;;;;16.45;9.50;;;;;;;;;;5008021;28;20050;-78
2024/02/27 09:08:24;;;;;;;23.55;11.73;;;;;;;;;;5013842;28;20492;-80
2024/02/27 09:10:51;;;;;;;13.30;9.57;;;;;;;;;;5002320;28;20050;-77
2024/02/27 09:13:17;;;;;;;15.63;9.48;;;;;;;;;;5002856;28;20050;-78
2024/02/27 09:15:44;;;;;;;15.57;9.48;;;;;;;;;;5003158;28;20138;-78
2024/02/27 09:18:11;;;;;;;15.63;9.68;;;;;;;;;;5012023;28;20149;-78
2024/02/27 09:20:41;;;;;;;19.98;10.38;;;;;;;;;;4996117;28;20046;-78
2024/02/27 09:23:08;;;;;;;18.55;10.68;;;;;;;;;;5011934;28;20103;-79
2024/02/27 09:25:34;;;;;;;16.70;10.23;;;;;;;;;;4993794;28;20084;-78
2024/02/27 09:28:01;;;;;;;20.25;11.00;;;;;;;;;;5013898;28;20097;-78
2024/02/27 09:30:28;;;;;;;19.50;11.57;;;;;;;;;;5006347;28;20073;-78
2024/02/27 09:32:55;;;;;;;20.95;11.20;;;;;;;;;;4995933;28;20065;-78
2024/02/27 09:35:22;;;;;;;18.88;11.63;;;;;;;;;;4994053;28;20448;-77
2024/02/27 09:37:48;;;;;;;15.45;9.70;;;;;;;;;;5011455;28;20463;-78
2024/02/27 09:40:15;;;;;;;20.98;11.60;;;;;;;;;;5006533;28;20054;-77
2024/02/27 09:42:42;;;;;;;19.67;11.02;;;;;;;;;;5007174;28;20056;-77
2024/02/27 09:45:10;;;;;;;17.42;11.30;;;;;;;;;;5010024;28;20041;-77
2024/02/27 09:47:38;;;;;;;19.08;11.63;;;;;;;;;;4993318;28;20058;-78
2024/02/27 09:50:07;;;;;;;16.33;10.82;;;;;;;;;;4993730;28;20419;-78
2024/02/27 09:52:34;;;;;;;17.73;10.93;;;;;;;;;;5010421;28;20057;-77
2024/02/27 09:55:01;;;;;;;15.48;10.73;;;;;;;;;;5010886;28;20084;-77
2024/02/27 09:57:28;;;;;;;18.83;11.60;;;;;;;;;;5010078;28;20042;-77
2024/02/27 09:59:55;;;;;;;16.42;11.52;;;;;;;;;;4992412;28;20526;-77
2024/02/27 10:02:21;;;;;;;20.05;10.98;;;;;;;;;;5007897;28;20054;-77
2024/02/27 10:04:48;;;;;;;19.63;11.98;;;;;;;;;;5008714;28;20050;-78
2024/02/27 10:07:15;;;;;;;19.25;12.05;;;;;;;;;;5011461;28;20456;-77
2024/02/27 10:09:45;;;;;;;19.40;11.55;;;;;;;;;;5010179;28;20065;-78
2024/02/27 10:12:12;;;;;;;17.98;11.05;;;;;;;;;;5004543;28;20050;-78
2024/02/27 10:14:39;;;;;;;16.15;11.05;;;;;;;;;;5011794;28;20050;-78
2024/02/27 10:17:06;;;;;;;19.55;11.88;;;;;;;;;;5010537;28;20108;-78
2024/02/27 10:19:33;;;;;;;18.67;11.45;;;;;;;;;;5011256;28;20460;-76
2024/02/27 10:22:00;;;;;;;17.77;11.90;;;;;;;;;;5008567;28;20484;-78
2024/02/27 10:24:28;;;;;;;16.85;11.50;;;;;;;;;;5010486;28;20411;-78
2024/02/27 10:26:56;;;;;;;20.40;11.68;;;;;;;;;;5010064;28;20511;-77
2024/02/27 10:29:26;;;;;;;17.60;11.15;;;;;;;;;;5010207;28;20104;-78
2024/02/27 10:31:52;;;;;;;18.88;11.70;;;;;;;;;;4994137;28;20076;-78
2024/02/27 10:34:19;;;;;;;22.20;11.88;;;;;;;;;;4994679;28;20088;-78
2024/02/27 10:36:57;;;;;;;17.88;11.57;;;;;;;;;;5007013;28;20579;-77
2024/02/27 10:39:23;;;;;;;17.45;9.95;;;;;;;;;;4990011;28;20050;-78
2024/02/27 10:41:51;;;;;;;17.77;11.07;;;;;;;;;;5004832;28;20049;-77
2024/02/27 10:44:17;;;;;;;17.35;11.30;;;;;;;;;;5006189;28;20141;-77
2024/02/27 10:46:44;;;;;;;16.33;11.27;;;;;;;;;;5009543;28;20061;-78
2024/02/27 10:49:11;;;;;;;19.23;11.75;;;;;;;;;;4996792;28;20057;-78
2024/02/27 10:51:39;;;;;;;19.85;11.95;;;;;;;;;;4995659;28;20104;-77
2024/02/27 10:54:06;;;;;;;18.90;11.40;;;;;;;;;;4994330;28;20068;-77
2024/02/27 10:56:32;;;;;;;14.95;10.88;;;;;;;;;;4994106;28;20601;-77
2024/02/27 10:58:59;;;;;;;18.08;12.00;;;;;;;;;;5010133;28;20088;-79
2024/02/27 11:01:26;;;;;;;15.48;10.82;;;;;;;;;;5015542;28;20053;-78
2024/02/27 11:03:53;;;;;;;17.75;10.75;;;;;;;;;;5001359;28;20054;-79
2024/02/27 11:06:22;;;;;;;17.52;11.10;;;;;;;;;;5016619;28;20050;-79
2024/02/27 11:08:51;;;;;;;16.38;10.80;;;;;;;;;;4997024;28;20096;-79
2024/02/27 11:11:18;;;;;;;21.45;12.57;;;;;;;;;;5014278;28;20108;-78
2024/02/27 11:13:45;;;;;;;17.98;11.02;;;;;;;;;;4996115;28;20137;-79
2024/02/27 11:16:13;;;;;;;15.95;10.52;;;;;;;;;;5017996;28;20053;-79
2024/02/27 11:18:40;;;;;;;18.60;11.38;;;;;;;;;;5001318;28;20108;-79
2024/02/27 11:21:07;;;;;;;16.70;10.55;;;;;;;;;;5001837;28;20046;-79
2024/02/27 11:23:35;;;;;;;18.63;12.15;;;;;;;;;;5000944;28;20068;-79
2024/02/27 11:26:02;;;;;;;18.02;11.63;;;;;;;;;;5016695;28;20056;-79
2024/02/27 11:28:33;;;;;;;17.92;11.85;;;;;;;;;;5015809;28;20050;-79
2024/02/27 11:31:01;;;;;;;17.00;10.83;;;;;;;;;;5018375;28;20054;-79
2024/02/27 11:33:28;;;;;;;17.52;11.82;;;;;;;;;;5002813;28;20058;-79
2024/02/27 11:35:55;;;;;;;14.40;10.77;;;;;;;;;;5013585;28;20058;-79
2024/02/27 11:38:22;;;;;;;19.55;11.55;;;;;;;;;;5015646;28;20049;-79
2024/02/27 11:40:49;;;;;;;18.17;11.90;;;;;;;;;;4992222;28;20659;-79
2024/02/27 11:43:16;;;;;;;17.65;11.52;;;;;;;;;;4997087;28;20069;-79
2024/02/27 11:45:43;;;;;;;17.75;12.38;;;;;;;;;;4998911;28;20074;-78
2024/02/27 11:48:09;;;;;;;19.75;12.68;;;;;;;;;;4999810;28;20081;-81
2024/02/27 11:50:37;;;;;;;18.02;11.60;;;;;;;;;;5014462;28;20073;-78
2024/02/27 11:53:20;;;;;;;18.30;10.93;;;;;;;;;;5016276;28;20054;-77
2024/02/27 11:55:49;;;;;;;19.05;12.02;;;;;;;;;;5011827;28;20096;-79
2024/02/27 11:58:16;;;;;;;17.77;11.90;;;;;;;;;;5000512;28;20061;-79
2024/02/27 12:00:43;;;;;;;20.10;11.77;;;;;;;;;;4992162;28;20042;-77
2024/02/27 12:03:10;;;;;;;17.05;11.52;;;;;;;;;;5005605;28;20483;-74
2024/02/27 12:05:37;;;;;;;18.67;12.60;;;;;;;;;;5005075;28;20500;-75
2024/02/27 12:08:03;;;;;;;20.20;12.80;;;;;;;;;;4989589;28;20133;-77
2024/02/27 12:10:31;;;;;;;20.25;12.52;;;;;;;;;;5007941;28;20492;-77
2024/02/27 12:12:58;;;;;;;14.77;11.23;;;;;;;;;;5007510;28;20050;-77
2024/02/27 12:15:26;;;;;;;19.92;11.27;;;;;;;;;;5007313;28;20089;-77
2024/02/27 12:17:53;;;;;;;20.45;11.90;;;;;;;;;;5007067;28;20050;-77
2024/02/27 12:20:20;;;;;;;17.63;11.98;;;;;;;;;;5007297;28;20745;-77
2024/02/27 12:22:47;;;;;;;22.13;11.63;;;;;;;;;;5006842;28;20074;-78
2024/02/27 12:25:17;;;;;;;18.20;11.32;;;;;;;;;;5003678;28;20415;-78
2024/02/27 12:27:45;;;;;;;19.65;12.35;;;;;;;;;;5007724;28;20132;-76
2024/02/27 12:30:12;;;;;;;19.17;12.02;;;;;;;;;;5003917;28;20057;-80
2024/02/27 12:32:39;;;;;;;19.20;11.88;;;;;;;;;;4995500;28;20050;-80
2024/02/27 12:35:07;;;;;;;17.38;11.32;;;;;;;;;;4988399;28;20560;-82
2024/02/27 12:37:41;;;;;;;20.30;12.02;;;;;;;;;;4992821;28;20124;-81
2024/02/27 12:40:15;;;;;;;17.13;11.85;;;;;;;;;;5008528;28;20065;-82
2024/02/27 12:42:48;;;;;;;18.65;12.50;;;;;;;;;;4993248;28;20325;-82
2024/02/27 12:45:16;;;;;;;18.75;11.90;;;;;;;;;;5014912;28;20054;-82
2024/02/27 12:47:45;;;;;;;19.08;12.80;;;;;;;;;;4999188;28;20405;-82
2024/02/27 12:50:15;;;;;;;17.98;12.02;;;;;;;;;;5001838;28;20065;-81
2024/02/27 12:52:42;;;;;;;17.42;12.15;;;;;;;;;;5001265;28;20592;-81
2024/02/27 12:55:15;;;;;;;;;;;;;;;;;;5011558;28;20054;-82
2024/02/27 12:57:42;;;;;;;18.63;11.98;;;;;;;;;;5016357;28;19921;-82
2024/02/27 13:00:11;;;;;;;20.45;12.57;;;;;;;;;;5012236;28;20053;-81
2024/02/27 13:02:38;;;;;;;16.30;12.15;;;;;;;;;;5015136;28;20081;-81
2024/02/27 13:05:07;;;;;;;19.73;12.43;;;;;;;;;;4999508;28;20056;-81
2024/02/27 13:07:37;;;;;;;22.45;14.32;;;;;;;;;;4999660;28;20046;-82
2024/02/27 13:10:04;;;;;;;20.35;12.75;;;;;;;;;;5018337;28;20045;-82
2024/02/27 13:12:30;;;;;;;20.85;14.23;;;;;;;;;;5016368;28;20049;-81
2024/02/27 13:14:57;;;;;;;23.83;14.82;;;;;;;;;;5016333;28;20081;-81
2024/02/27 13:17:24;;;;;;;21.05;13.85;;;;;;;;;;5017061;28;20076;-81
2024/02/27 13:19:52;;;;;;;23.63;14.55;;;;;;;;;;5017087;28;20061;-80
2024/02/27 13:22:18;;;;;;;26.02;14.32;;;;;;;;;;5009870;28;20109;-81
2024/02/27 13:24:45;;;;;;;22.52;14.43;;;;;;;;;;5000295;28;20570;-81
2024/02/27 13:27:16;;;;;;;22.25;14.75;;;;;;;;;;5001430;28;20097;-81
2024/02/27 13:29:43;;;;;;;21.33;13.65;;;;;;;;;;5014569;28;20563;-80
2024/02/27 13:32:09;;;;;;;24.48;15.68;;;;;;;;;;5016335;28;20054;-81
2024/02/27 13:34:36;;;;;;;24.25;15.38;;;;;;;;;;4998895;28;20098;-80
2024/02/27 13:37:05;;;;;;;24.50;15.48;;;;;;;;;;5008442;28;20089;-81
2024/02/27 13:39:32;;;;;;;22.73;14.45;;;;;;;;;;5008565;28;20046;-81
2024/02/27 13:42:02;;;;;;;22.52;14.25;;;;;;;;;;5014822;28;20092;-81
2024/02/27 13:44:29;;;;;;;25.38;14.73;;;;;;;;;;5000229;28;20042;-80
2024/02/27 13:46:56;;;;;;;21.98;14.80;;;;;;;;;;5016638;28;20088;-80
2024/02/27 13:49:22;;;;;;;21.75;14.73;;;;;;;;;;4999813;28;20108;-80
2024/02/27 13:51:49;;;;;;;21.55;14.35;;;;;;;;;;5015777;28;20081;-79
2024/02/27 13:54:16;;;;;;;19.98;13.43;;;;;;;;;;5014496;28;20141;-81
2024/02/27 13:56:43;;;;;;;23.52;13.57;;;;;;;;;;5009217;28;20058;-82
2024/02/27 13:59:09;;;;;;;22.00;14.20;;;;;;;;;;5001368;28;20042;-80
2024/02/27 14:01:36;;;;;;;19.25;12.95;;;;;;;;;;4999048;28;20077;-81
2024/02/27 14:04:02;;;;;;;23.52;13.68;;;;;;;;;;5003257;28;20061;-80
2024/02/27 14:06:29;;;;;;;19.52;13.00;;;;;;;;;;5033814;28;20049;-85
2024/02/27 14:08:56;;;;;;;19.90;13.25;;;;;;;;;;5018196;28;20046;-80
2024/02/27 14:11:23;;;;;;;21.75;12.85;;;;;;;;;;5012545;28;20064;-81
2024/02/27 14:13:49;;;;;;;24.98;13.35;;;;;;;;;;5012938;28;20049;-81
2024/02/27 14:16:16;;;;;;;22.33;13.48;;;;;;;;;;5012384;28;20128;-80
2024/02/27 14:18:43;;;;;;;19.88;13.20;;;;;;;;;;5013000;28;20129;-81
2024/02/27 14:21:10;;;;;;;20.42;12.93;;;;;;;;;;5013294;28;20527;-81
2024/02/27 14:23:37;;;;;;;20.85;13.52;;;;;;;;;;5010647;28;20078;-81
2024/02/27 14:26:04;;;;;;;18.42;12.07;;;;;;;;;;4997964;28;20112;-81
2024/02/27 14:28:30;;;;;;;23.13;13.63;;;;;;;;;;5004809;28;20077;-81
2024/02/27 14:30:57;;;;;;;19.35;12.35;;;;;;;;;;4992820;28;20050;-80